Time;durP1;ratioP1;P1;durP2;ratioP2;P2;SDS_P1;SDS_P2;PMS_P1;PMS_P2;Temp;Humidity;BMP_temperature;BMP_pressure;BME280_temperature;BME280_humidity;BME280_pressure;Samples;Min_cycle;Max_cycle;Signal;HPM_P1;HPM_P2
2022/05/25 00:00:10;;;;;;;1.40;1.40;;;21.40;68.30;;;;;;5089268;27;43922;-71
2022/05/25 00:02:38;;;;;;;1.10;1.10;;;21.30;68.30;;;;;;5089435;27;43947;-71
2022/05/25 00:05:08;;;;;;;1.50;1.50;;;21.30;68.40;;;;;;5089482;27;43838;-71
2022/05/25 00:07:36;;;;;;;1.33;1.33;;;21.30;68.50;;;;;;5089280;27;43881;-71
2022/05/25 00:10:05;;;;;;;1.30;1.30;;;21.20;68.50;;;;;;5070426;28;43445;-71
2022/05/25 00:12:33;;;;;;;1.40;1.40;;;21.30;68.60;;;;;;5100705;27;43988;-72
2022/05/25 00:15:06;;;;;;;1.20;1.20;;;21.20;69.10;;;;;;5109164;27;43353;-71
2022/05/25 00:17:34;;;;;;;1.10;1.10;;;21.30;70.30;;;;;;5108496;27;43936;-71
2022/05/25 00:20:01;;;;;;;1.10;1.10;;;21.40;70.00;;;;;;5109091;27;44006;-72
2022/05/25 00:22:31;;;;;;;1.17;1.17;;;21.60;69.50;;;;;;5095876;27;43774;-71
2022/05/25 00:24:59;;;;;;;1.27;1.27;;;21.80;69.00;;;;;;5088772;27;43950;-72
2022/05/25 00:27:27;;;;;;;1.30;1.30;;;22.00;68.50;;;;;;5088977;27;43799;-71
2022/05/25 00:29:55;;;;;;;1.00;1.00;;;22.10;67.80;;;;;;5090244;27;45933;-71
2022/05/25 00:32:24;;;;;;;1.23;1.23;;;22.30;67.30;;;;;;5108872;27;43990;-72
2022/05/25 00:34:55;;;;;;;1.07;1.07;;;22.40;66.80;;;;;;5087642;27;43487;-71
2022/05/25 00:37:23;;;;;;;0.90;0.90;;;22.50;66.50;;;;;;5088504;27;43990;-71
2022/05/25 00:39:51;;;;;;;1.23;1.23;;;22.60;66.10;;;;;;5088921;27;44034;-71
2022/05/25 00:42:20;;;;;;;0.93;0.93;;;22.60;66.30;;;;;;5088735;27;43994;-71
2022/05/25 00:44:48;;;;;;;1.10;1.10;;;22.40;66.50;;;;;;5088617;27;44114;-72
2022/05/25 00:47:22;;;;;;;1.10;1.10;;;22.20;66.10;;;;;;5088293;27;44778;-72
2022/05/25 00:49:51;;;;;;;1.03;1.03;;;22.00;66.40;;;;;;5088575;27;44087;-71
2022/05/25 00:52:20;;;;;;;1.20;1.20;;;21.80;66.80;;;;;;5070104;27;44035;-71
2022/05/25 00:54:48;;;;;;;1.10;1.10;;;21.70;67.20;;;;;;5075642;27;43685;-71
2022/05/25 00:57:18;;;;;;;1.00;1.00;;;21.60;67.60;;;;;;5087976;27;43993;-70
2022/05/25 01:00:00;;;;;;;1.10;1.10;;;21.50;67.90;;;;;;5090020;27;43987;-71
2022/05/25 01:02:28;;;;;;;0.90;0.90;;;21.40;68.00;;;;;;5091388;27;43402;-71
2022/05/25 01:04:58;;;;;;;1.10;1.10;;;21.40;68.30;;;;;;5088655;27;43971;-71
2022/05/25 01:07:35;;;;;;;1.00;1.00;;;21.30;68.40;;;;;;5088156;27;44126;-71
2022/05/25 01:10:09;;;;;;;1.10;1.10;;;21.30;68.50;;;;;;5088043;27;43821;-71
2022/05/25 01:12:45;;;;;;;0.90;0.90;;;21.30;68.60;;;;;;5069859;28;44024;-71
2022/05/25 01:15:15;;;;;;;0.93;0.93;;;21.20;68.60;;;;;;5088563;27;43973;-72
2022/05/25 01:17:50;;;;;;;0.90;0.90;;;21.20;68.70;;;;;;5087564;27;44103;-71
2022/05/25 01:20:24;;;;;;;1.10;1.10;;;21.20;68.70;;;;;;5087878;27;44001;-71
2022/05/25 01:23:10;;;;;;;0.93;0.93;;;21.20;69.30;;;;;;5088153;27;43974;-71
2022/05/25 01:26:12;;;;;;;1.00;1.00;;;21.30;70.20;;;;;;5087865;27;43987;-71
2022/05/25 01:28:47;;;;;;;1.10;1.10;;;21.50;70.00;;;;;;5044198;27;44209;-71
2022/05/25 01:31:20;;;;;;;0.80;0.80;;;21.60;69.40;;;;;;5088013;27;43339;-70
2022/05/25 01:33:50;;;;;;;0.97;0.97;;;21.80;68.70;;;;;;5088062;27;43931;-70
2022/05/25 01:36:21;;;;;;;0.90;0.90;;;22.00;69.00;;;;;;5088176;27;43936;-72
2022/05/25 01:38:51;;;;;;;1.00;1.00;;;22.20;67.60;;;;;;5087744;27;43979;-71
2022/05/25 01:41:21;;;;;;;0.90;0.90;;;22.30;67.10;;;;;;5087620;27;43924;-72
2022/05/25 01:43:52;;;;;;;0.90;0.90;;;22.50;66.70;;;;;;5087948;27;43950;-71
2022/05/25 01:46:23;;;;;;;0.90;0.90;;;22.60;66.40;;;;;;5069503;28;44115;-70
2022/05/25 01:48:51;;;;;;;0.90;0.90;;;22.50;66.30;;;;;;5087084;28;44286;-71
2022/05/25 01:51:23;;;;;;;0.87;0.87;;;22.40;66.50;;;;;;5068957;28;46740;-71
2022/05/25 01:53:52;;;;;;;0.90;0.90;;;22.20;66.40;;;;;;5086196;27;43964;-71
2022/05/25 01:56:20;;;;;;;0.77;0.77;;;22.00;66.40;;;;;;5069459;27;43703;-71
2022/05/25 01:58:53;;;;;;;1.00;1.00;;;21.80;66.90;;;;;;5087509;27;43942;-71
2022/05/25 02:01:22;;;;;;;1.00;1.00;;;21.70;67.30;;;;;;5086703;27;43995;-71
2022/05/25 02:07:05;;;;;;;1.00;1.00;;;21.50;67.90;;;;;;5069226;28;43921;-71
2022/05/25 02:09:41;;;;;;;1.00;1.00;;;21.40;68.20;;;;;;5068452;27;45933;-71
2022/05/25 02:12:13;;;;;;;0.87;0.87;;;21.30;68.30;;;;;;5068646;27;45267;-71
2022/05/25 02:14:46;;;;;;;0.80;0.80;;;21.30;68.50;;;;;;5087341;27;43939;-71
2022/05/25 02:17:20;;;;;;;0.80;0.80;;;21.20;68.50;;;;;;5088081;27;43911;-70
2022/05/25 02:19:51;;;;;;;0.90;0.90;;;21.20;68.60;;;;;;5087190;27;45126;-71
2022/05/25 02:22:20;;;;;;;0.73;0.73;;;21.20;68.70;;;;;;5068429;28;43492;-70
2022/05/25 02:24:50;;;;;;;0.90;0.90;;;21.20;68.80;;;;;;5086916;27;43998;-70
2022/05/25 02:27:20;;;;;;;0.90;0.90;;;21.20;68.80;;;;;;5069193;28;44273;-70
2022/05/25 02:29:49;;;;;;;0.83;0.83;;;21.20;68.90;;;;;;5086958;27;44029;-71
2022/05/25 02:32:21;;;;;;;0.90;0.90;;;21.20;70.00;;;;;;5068609;28;44372;-71
2022/05/25 02:34:51;;;;;;;0.90;0.90;;;21.30;70.10;;;;;;5087161;27;43952;-71
2022/05/25 02:37:20;;;;;;;0.80;0.80;;;21.50;69.80;;;;;;5068890;28;43610;-71
2022/05/25 02:39:50;;;;;;;0.80;0.80;;;21.70;69.30;;;;;;5086624;28;44971;-72
2022/05/25 02:42:19;;;;;;;0.80;0.80;;;21.90;68.70;;;;;;5068280;28;44941;-71
2022/05/25 02:44:47;;;;;;;0.77;0.77;;;22.10;68.20;;;;;;5086574;28;43478;-71
2022/05/25 02:47:15;;;;;;;0.90;0.90;;;22.20;67.60;;;;;;5086825;28;43949;-71
2022/05/25 02:49:44;;;;;;;0.93;0.93;;;22.30;66.90;;;;;;5099961;27;43916;-71
2022/05/25 02:52:13;;;;;;;0.80;0.80;;;22.50;66.60;;;;;;5074127;28;44736;-71
2022/05/25 02:54:40;;;;;;;0.90;0.90;;;22.50;66.00;;;;;;5068078;28;43993;-71
2022/05/25 02:57:09;;;;;;;0.73;0.73;;;22.50;66.10;;;;;;5086882;28;43813;-71
2022/05/25 02:59:37;;;;;;;0.90;0.90;;;22.40;66.60;;;;;;5086297;28;43877;-71
2022/05/25 03:02:05;;;;;;;0.90;0.90;;;22.20;66.50;;;;;;5086127;28;43938;-70
2022/05/25 03:04:34;;;;;;;0.80;0.80;;;22.00;66.50;;;;;;5087295;27;43889;-72
2022/05/25 03:07:03;;;;;;;0.83;0.83;;;21.80;66.90;;;;;;5090033;28;44038;-72
2022/05/25 03:09:31;;;;;;;0.80;0.80;;;21.60;67.30;;;;;;5089894;28;43768;-72
2022/05/25 03:12:02;;;;;;;0.87;0.87;;;21.50;67.70;;;;;;5089893;28;44361;-71
2022/05/25 03:14:30;;;;;;;0.97;0.97;;;21.40;68.00;;;;;;5104701;27;43979;-71
2022/05/25 03:17:04;;;;;;;0.83;0.83;;;21.30;68.20;;;;;;5110340;27;43943;-72
2022/05/25 03:19:32;;;;;;;0.80;0.80;;;21.30;68.40;;;;;;5109791;27;43974;-70
2022/05/25 03:22:00;;;;;;;0.90;0.90;;;21.20;68.50;;;;;;5109424;27;43545;-72
2022/05/25 03:24:30;;;;;;;0.90;0.90;;;21.20;68.60;;;;;;5076137;27;43990;-71
2022/05/25 03:26:58;;;;;;;0.80;0.80;;;21.20;68.70;;;;;;5090587;27;43929;-71
2022/05/25 03:29:26;;;;;;;0.90;0.90;;;21.20;68.80;;;;;;5089791;27;43896;-71
2022/05/25 03:31:54;;;;;;;0.87;0.87;;;21.10;68.70;;;;;;5089565;27;43534;-71
2022/05/25 03:34:22;;;;;;;0.73;0.73;;;21.10;68.70;;;;;;5089714;27;43931;-72
2022/05/25 03:36:53;;;;;;;0.80;0.80;;;21.10;68.80;;;;;;5089259;27;43955;-71
2022/05/25 03:39:22;;;;;;;0.70;0.70;;;21.10;69.00;;;;;;5100195;27;43963;-71
2022/05/25 03:41:54;;;;;;;0.80;0.80;;;21.20;69.90;;;;;;5090854;27;45097;-71
2022/05/25 03:44:22;;;;;;;0.90;0.90;;;21.30;70.00;;;;;;5093732;27;43358;-70
2022/05/25 03:46:50;;;;;;;1.07;1.07;;;21.50;69.50;;;;;;5090019;27;43928;-72
2022/05/25 03:49:19;;;;;;;1.53;1.30;;;21.60;68.90;;;;;;5089803;27;43880;-71
2022/05/25 03:51:47;;;;;;;3.43;1.70;;;21.90;68.50;;;;;;5089552;27;43383;-70
2022/05/25 03:54:14;;;;;;;5.70;2.23;;;22.00;67.90;;;;;;5089592;27;43355;-71
2022/05/25 03:56:44;;;;;;;3.07;2.07;;;22.20;67.40;;;;;;5106992;27;44016;-70
2022/05/25 03:59:13;;;;;;;4.90;2.50;;;22.30;66.80;;;;;;5090388;27;46383;-71
2022/05/25 04:01:41;;;;;;;6.37;2.53;;;22.40;66.20;;;;;;5092995;27;43987;-70
2022/05/25 04:04:09;;;;;;;12.20;3.27;;;22.40;64.90;;;;;;5089442;27;44037;-71
2022/05/25 04:06:37;;;;;;;7.03;2.50;;;22.30;65.80;;;;;;5089639;27;43962;-72
2022/05/25 04:09:05;;;;;;;12.03;3.30;;;22.20;65.90;;;;;;5089547;27;43921;-70
2022/05/25 04:11:34;;;;;;;4.70;2.97;;;22.00;66.80;;;;;;5088681;27;43467;-71
2022/05/25 04:14:02;;;;;;;5.70;3.10;;;21.80;66.30;;;;;;5089548;27;43977;-70
2022/05/25 04:16:32;;;;;;;9.10;3.30;;;21.70;66.60;;;;;;5081092;27;44223;-70
2022/05/25 04:19:00;;;;;;;7.07;3.33;;;21.60;66.90;;;;;;5108883;27;43923;-70
2022/05/25 04:21:31;;;;;;;7.00;3.83;;;21.50;67.10;;;;;;5108900;27;43285;-71
2022/05/25 04:23:59;;;;;;;8.00;3.50;;;21.40;67.30;;;;;;5104772;27;43943;-70
2022/05/25 04:26:28;;;;;;;5.10;3.30;;;21.40;67.50;;;;;;5094030;27;43951;-70
2022/05/25 04:28:56;;;;;;;7.90;4.03;;;21.30;67.90;;;;;;5090718;27;44040;-71
2022/05/25 04:31:24;;;;;;;6.60;3.67;;;21.30;69.30;;;;;;5070523;28;45016;-71
2022/05/25 04:33:53;;;;;;;8.90;4.07;;;21.50;69.40;;;;;;5089024;27;43758;-71
2022/05/25 04:36:22;;;;;;;7.80;3.73;;;21.70;68.50;;;;;;5089261;27;43920;-70
2022/05/25 04:38:53;;;;;;;5.77;3.60;;;21.90;67.80;;;;;;5088407;27;44996;-71
2022/05/25 04:41:21;;;;;;;5.40;3.40;;;22.10;67.20;;;;;;5088649;27;43409;-71
2022/05/25 04:43:49;;;;;;;7.93;3.80;;;22.30;66.30;;;;;;5088905;27;43354;-72
2022/05/25 04:46:17;;;;;;;6.20;3.60;;;22.60;65.80;;;;;;5088843;27;43555;-70
2022/05/25 04:48:45;;;;;;;8.60;3.97;;;22.70;65.00;;;;;;5088685;27;43892;-71
2022/05/25 04:51:14;;;;;;;7.83;4.03;;;22.80;64.10;;;;;;5107364;27;44048;-71
2022/05/25 04:53:43;;;;;;;7.77;4.13;;;23.00;63.50;;;;;;5108500;27;43940;-71
2022/05/25 04:58:56;;;;;;;6.93;3.63;;;23.10;62.60;;;;;;5076524;27;43891;-70
2022/05/25 05:01:24;;;;;;;5.20;3.50;;;23.20;62.50;;;;;;5108008;27;43586;-70
2022/05/25 05:03:58;;;;;;;4.70;3.17;;;23.20;62.50;;;;;;5108353;27;43931;-72
2022/05/25 05:06:28;;;;;;;7.53;3.50;;;23.20;62.50;;;;;;5099845;27;43884;-71
2022/05/25 05:08:56;;;;;;;6.13;3.00;;;23.20;62.30;;;;;;5088457;27;44189;-71
2022/05/25 05:11:24;;;;;;;4.73;3.00;;;23.30;62.30;;;;;;5096947;27;44063;-70
2022/05/25 05:13:51;;;;;;;5.60;3.37;;;23.20;62.60;;;;;;5107784;27;44007;-71
2022/05/25 05:16:19;;;;;;;5.50;3.30;;;23.00;63.30;;;;;;5106031;27;43363;-71
2022/05/25 05:18:58;;;;;;;7.63;3.77;;;22.80;63.80;;;;;;5069817;28;43905;-70
2022/05/25 05:21:57;;;;;;;4.33;3.13;;;22.50;64.50;;;;;;5069100;27;44011;-71
2022/05/25 05:24:25;;;;;;;4.70;3.20;;;22.20;64.70;;;;;;5088154;27;43901;-70
2022/05/25 05:26:53;;;;;;;3.30;2.80;;;22.00;65.30;;;;;;5089763;27;44297;-70
2022/05/25 05:29:22;;;;;;;4.90;3.57;;;21.80;65.70;;;;;;5099647;27;43934;-70
2022/05/25 05:31:50;;;;;;;3.10;2.80;;;21.70;66.10;;;;;;5087908;27;44161;-71
2022/05/25 05:34:18;;;;;;;4.57;3.37;;;21.50;66.40;;;;;;5087981;27;43455;-70
2022/05/25 05:36:49;;;;;;;3.70;2.90;;;21.50;66.80;;;;;;5102970;27;43967;-71
2022/05/25 05:39:19;;;;;;;4.87;3.27;;;21.40;67.00;;;;;;5098904;27;43956;-71
2022/05/25 05:41:48;;;;;;;3.00;2.70;;;21.40;67.30;;;;;;5087709;27;43889;-70
2022/05/25 05:44:18;;;;;;;3.20;2.90;;;21.30;68.30;;;;;;5088130;27;43980;-70
2022/05/25 05:46:46;;;;;;;3.80;2.80;;;21.30;68.80;;;;;;5088110;27;44049;-70
2022/05/25 05:49:14;;;;;;;3.43;2.50;;;21.50;68.70;;;;;;5087819;27;44817;-71
2022/05/25 05:51:42;;;;;;;3.10;2.83;;;21.60;68.20;;;;;;5087520;27;44073;-70
2022/05/25 05:54:10;;;;;;;3.20;2.90;;;21.80;67.60;;;;;;5072529;27;43951;-70
2022/05/25 05:56:39;;;;;;;3.20;2.90;;;22.10;67.00;;;;;;5107912;27;43901;-71
2022/05/25 05:59:07;;;;;;;4.13;2.90;;;22.20;66.10;;;;;;5107283;27;43918;-70
2022/05/25 06:01:36;;;;;;;2.80;2.60;;;22.30;65.50;;;;;;5104157;27;44023;-71
2022/05/25 06:04:05;;;;;;;3.23;2.93;;;22.50;65.30;;;;;;5087595;27;44234;-69
2022/05/25 06:06:33;;;;;;;3.30;3.00;;;22.60;64.70;;;;;;5087891;27;44427;-70
2022/05/25 06:09:01;;;;;;;3.13;2.87;;;22.70;64.40;;;;;;5087905;27;43998;-70
2022/05/25 06:11:29;;;;;;;3.73;3.00;;;22.70;64.20;;;;;;5088108;27;43931;-71
2022/05/25 06:13:58;;;;;;;3.07;2.77;;;22.70;64.10;;;;;;5097595;27;43909;-71
2022/05/25 06:19:27;;;;;;;2.70;2.60;;;22.40;65.00;;;;;;5094502;27;44795;-71
2022/05/25 06:21:59;;;;;;;2.90;2.70;;;22.10;65.20;;;;;;5093742;27;43951;-71
2022/05/25 06:24:27;;;;;;;2.67;2.47;;;21.90;65.70;;;;;;5102580;27;43966;-70
2022/05/25 06:26:55;;;;;;;3.27;2.70;;;21.70;66.10;;;;;;5107326;27;43391;-70
2022/05/25 06:29:28;;;;;;;2.87;2.70;;;21.50;66.60;;;;;;5107121;27;45128;-70
2022/05/25 06:31:56;;;;;;;2.30;2.20;;;21.40;66.90;;;;;;5106365;27;44005;-71
2022/05/25 06:34:23;;;;;;;2.87;2.60;;;21.30;67.20;;;;;;5106924;27;43901;-71
2022/05/25 06:36:51;;;;;;;2.40;2.30;;;21.30;67.50;;;;;;5106950;27;43355;-71
2022/05/25 06:39:19;;;;;;;2.60;2.40;;;21.20;67.60;;;;;;5107604;27;43972;-71
2022/05/25 06:41:47;;;;;;;2.80;2.60;;;21.20;67.80;;;;;;5110254;27;43947;-71
2022/05/25 06:44:17;;;;;;;2.70;2.50;;;21.20;67.90;;;;;;5094705;27;44046;-70
2022/05/25 06:46:46;;;;;;;2.80;2.60;;;21.10;68.00;;;;;;5090784;27;43534;-70
2022/05/25 06:49:15;;;;;;;2.63;2.43;;;21.10;69.50;;;;;;5107053;27;43860;-71
2022/05/25 06:51:46;;;;;;;2.43;2.30;;;21.20;69.50;;;;;;5110267;27;44058;-70
2022/05/25 06:54:15;;;;;;;2.50;2.30;;;21.40;69.10;;;;;;5104155;27;44246;-71
2022/05/25 06:56:42;;;;;;;2.80;2.57;;;21.60;68.60;;;;;;5093921;27;43943;-71
2022/05/25 06:59:10;;;;;;;2.70;2.50;;;21.70;68.50;;;;;;5090120;27;43912;-71
2022/05/25 07:01:39;;;;;;;4.80;2.47;;;22.00;67.40;;;;;;5090064;27;43966;-71
2022/05/25 07:04:09;;;;;;;1.93;1.93;;;22.10;66.40;;;;;;5090621;27;44031;-71
2022/05/25 07:06:37;;;;;;;3.07;2.77;;;22.20;66.00;;;;;;5094803;27;43854;-71
2022/05/25 07:09:05;;;;;;;2.43;2.23;;;22.30;65.60;;;;;;5092560;27;43936;-71
2022/05/25 07:11:36;;;;;;;2.73;2.53;;;22.40;65.20;;;;;;5090255;27;44147;-70
2022/05/25 07:14:04;;;;;;;2.63;2.50;;;22.50;64.90;;;;;;5090568;27;43959;-71
2022/05/25 07:16:32;;;;;;;2.50;2.30;;;22.60;64.70;;;;;;5090913;27;43988;-70
2022/05/25 07:19:00;;;;;;;2.67;2.50;;;22.50;64.40;;;;;;5090302;27;45061;-70
2022/05/25 07:21:31;;;;;;;2.47;2.20;;;22.40;64.70;;;;;;5090510;27;44014;-70
2022/05/25 07:23:59;;;;;;;3.17;2.00;;;22.30;65.50;;;;;;5101833;27;44082;-71
2022/05/25 07:26:29;;;;;;;2.37;2.23;;;22.10;65.50;;;;;;5105236;27;44046;-71
2022/05/25 07:28:57;;;;;;;2.20;2.10;;;21.80;65.70;;;;;;5089939;27;44002;-71
2022/05/25 07:31:26;;;;;;;2.57;2.33;;;21.60;66.20;;;;;;5101639;27;43929;-70
2022/05/25 07:33:59;;;;;;;2.30;2.20;;;21.50;66.70;;;;;;5109665;27;43942;-70
2022/05/25 07:36:26;;;;;;;2.17;2.07;;;21.40;67.00;;;;;;5090605;27;43400;-72
2022/05/25 07:38:57;;;;;;;2.33;2.23;;;21.30;67.30;;;;;;5071246;28;45384;-71
2022/05/25 07:41:24;;;;;;;2.00;1.97;;;21.20;67.50;;;;;;5089511;27;43881;-70
2022/05/25 07:43:57;;;;;;;2.53;2.27;;;21.20;67.80;;;;;;5103000;27;44005;-71
2022/05/25 07:46:26;;;;;;;2.10;2.00;;;21.10;67.80;;;;;;5109833;27;43915;-71
2022/05/25 07:48:56;;;;;;;2.63;2.43;;;21.10;68.00;;;;;;5109132;27;45183;-70
2022/05/25 07:51:24;;;;;;;2.33;2.23;;;21.10;68.10;;;;;;5094338;27;44013;-71
2022/05/25 07:53:59;;;;;;;2.10;2.00;;;21.10;68.30;;;;;;5109007;27;43891;-71
2022/05/25 07:56:30;;;;;;;2.53;2.37;;;21.00;68.20;;;;;;5089654;27;43998;-70
2022/05/25 07:58:59;;;;;;;2.20;2.10;;;21.00;68.40;;;;;;5086690;27;45851;-70
2022/05/25 08:06:56;;;;;;;1.90;1.80;;;21.30;69.30;;;;;;5109614;27;43961;-71
2022/05/25 08:09:26;;;;;;;2.00;1.90;;;21.50;68.60;;;;;;5088897;28;43884;-71
2022/05/25 08:11:55;;;;;;;2.23;2.03;;;21.80;68.00;;;;;;5088785;28;43416;-72
2022/05/25 08:14:24;;;;;;;2.23;2.13;;;22.00;67.40;;;;;;5089191;28;43962;-70
2022/05/25 08:16:53;;;;;;;2.00;1.90;;;22.10;66.70;;;;;;5088947;28;43829;-71
2022/05/25 08:19:23;;;;;;;2.40;2.20;;;22.20;65.90;;;;;;5088912;28;43925;-71
2022/05/25 08:21:51;;;;;;;2.13;2.03;;;22.30;65.50;;;;;;5087205;28;45151;-70
2022/05/25 08:24:19;;;;;;;2.17;2.07;;;22.40;65.30;;;;;;5088883;28;43971;-70
2022/05/25 08:26:47;;;;;;;2.07;1.97;;;22.40;65.00;;;;;;5089193;28;43921;-70
2022/05/25 08:29:17;;;;;;;2.30;2.10;;;22.40;64.90;;;;;;5088446;28;43857;-71
2022/05/25 08:31:45;;;;;;;2.10;2.00;;;22.30;65.60;;;;;;5088456;28;43422;-70
2022/05/25 08:34:13;;;;;;;2.30;2.20;;;22.10;65.90;;;;;;5090389;27;43332;-71
2022/05/25 08:36:41;;;;;;;1.60;1.60;;;21.90;65.80;;;;;;5094230;27;43951;-71
2022/05/25 08:39:09;;;;;;;1.70;1.60;;;21.70;66.10;;;;;;5095783;27;43982;-71
2022/05/25 08:41:37;;;;;;;2.00;1.90;;;21.50;66.60;;;;;;5070586;27;45570;-71
2022/05/25 08:44:07;;;;;;;2.10;2.00;;;21.40;67.00;;;;;;5088566;27;43805;-70
2022/05/25 08:46:36;;;;;;;1.90;1.80;;;21.30;67.30;;;;;;5070729;27;44542;-70
2022/05/25 08:49:07;;;;;;;1.70;1.60;;;21.20;67.60;;;;;;5078394;27;45338;-70
2022/05/25 08:51:42;;;;;;;2.00;1.90;;;21.20;67.90;;;;;;5108177;27;43928;-71
2022/05/25 08:54:10;;;;;;;2.17;2.07;;;21.10;68.00;;;;;;5108511;27;44013;-70
2022/05/25 08:56:39;;;;;;;2.03;1.93;;;21.10;68.20;;;;;;5092146;27;44033;-71
2022/05/25 08:59:11;;;;;;;1.90;1.80;;;21.00;68.20;;;;;;5088465;27;44067;-70
2022/05/25 09:01:43;;;;;;;1.87;1.87;;;21.00;68.30;;;;;;5087692;27;43992;-71
2022/05/25 09:04:17;;;;;;;2.10;2.00;;;21.00;68.40;;;;;;5088468;27;43414;-72
2022/05/25 09:06:48;;;;;;;1.80;1.70;;;21.00;69.40;;;;;;5082575;27;43982;-70
2022/05/25 09:09:18;;;;;;;2.03;1.93;;;21.00;70.00;;;;;;5107802;27;43955;-70
2022/05/25 09:11:48;;;;;;;2.00;1.90;;;21.20;69.80;;;;;;5089396;27;45309;-71
2022/05/25 09:14:19;;;;;;;1.77;1.77;;;21.30;69.30;;;;;;5108149;27;43355;-71
2022/05/25 09:16:49;;;;;;;1.70;1.70;;;21.50;68.70;;;;;;5088616;27;44002;-71
2022/05/25 09:19:21;;;;;;;1.67;1.57;;;21.70;68.20;;;;;;5087943;28;43920;-70
2022/05/25 09:21:51;;;;;;;2.00;1.90;;;21.90;67.70;;;;;;5069329;28;44974;-71
2022/05/25 09:24:25;;;;;;;2.10;1.70;;;22.00;67.00;;;;;;5088026;28;43950;-71
2022/05/25 09:26:53;;;;;;;1.40;1.40;;;22.20;66.60;;;;;;5088131;28;44186;-70
2022/05/25 09:29:24;;;;;;;1.60;1.60;;;22.20;65.80;;;;;;5069527;28;45003;-71
2022/05/25 09:31:56;;;;;;;1.80;1.70;;;22.30;65.40;;;;;;5069235;27;46279;-72
2022/05/25 09:34:32;;;;;;;1.60;1.60;;;22.40;65.30;;;;;;5069654;27;43359;-71
2022/05/25 09:37:08;;;;;;;1.60;1.60;;;22.50;65.00;;;;;;5088338;27;44035;-70
2022/05/25 09:39:39;;;;;;;1.80;1.70;;;22.50;65.00;;;;;;5087889;27;43887;-71
2022/05/25 09:42:11;;;;;;;1.83;1.73;;;22.30;65.30;;;;;;5069650;28;44003;-71
2022/05/25 09:44:39;;;;;;;1.70;1.60;;;22.10;65.60;;;;;;5088901;27;43917;-70
2022/05/25 09:47:08;;;;;;;1.50;1.50;;;21.90;65.80;;;;;;5107724;27;43985;-71
2022/05/25 09:49:38;;;;;;;1.57;1.53;;;21.70;66.20;;;;;;5087328;28;43939;-71
2022/05/25 09:52:07;;;;;;;1.70;1.60;;;21.50;66.60;;;;;;5087523;27;43592;-70
2022/05/25 09:54:37;;;;;;;1.53;1.53;;;21.40;67.10;;;;;;5079664;27;44019;-71
2022/05/25 09:57:07;;;;;;;1.57;1.47;;;21.30;68.20;;;;;;5107571;27;44032;-70
2022/05/25 09:59:37;;;;;;;1.60;1.50;;;21.20;67.70;;;;;;5107521;27;44071;-70
2022/05/25 10:02:19;;;;;;;1.60;1.60;;;21.20;67.90;;;;;;5106538;27;43958;-70
2022/05/25 10:04:52;;;;;;;1.87;1.83;;;21.10;68.10;;;;;;5069223;27;43873;-70
2022/05/25 10:07:21;;;;;;;1.70;1.60;;;21.10;68.20;;;;;;5088022;27;43502;-70
2022/05/25 10:09:51;;;;;;;1.57;1.57;;;21.00;68.30;;;;;;5087554;27;44043;-71
2022/05/25 10:12:24;;;;;;;1.60;1.60;;;21.00;68.40;;;;;;5086855;27;43874;-71
2022/05/25 10:14:55;;;;;;;1.60;1.60;;;21.00;68.40;;;;;;5086635;27;43980;-70
2022/05/25 10:17:33;;;;;;;1.83;1.73;;;21.00;68.50;;;;;;5099344;27;44042;-71
2022/05/25 10:20:02;;;;;;;1.67;1.57;;;21.00;68.50;;;;;;5087163;28;43956;-70
2022/05/25 10:22:37;;;;;;;1.63;1.63;;;21.00;68.60;;;;;;5069054;28;46338;-71
2022/05/25 10:25:07;;;;;;;1.70;1.60;;;21.00;69.50;;;;;;5087408;27;43426;-71
2022/05/25 10:27:38;;;;;;;1.50;1.50;;;21.10;70.10;;;;;;5087870;27;43412;-70
2022/05/25 10:38:42;;;;;;;1.50;1.50;;;21.90;67.70;;;;;;5087748;27;43754;-70
2022/05/25 10:44:04;;;;;;;1.70;1.70;;;22.10;66.50;;;;;;5092241;27;44246;-70
2022/05/25 10:46:32;;;;;;;1.60;1.60;;;22.30;66.00;;;;;;5087173;27;44023;-71
2022/05/25 10:49:06;;;;;;;1.50;1.50;;;22.30;65.50;;;;;;5087463;27;43923;-70
2022/05/25 10:51:39;;;;;;;1.60;1.60;;;22.20;66.10;;;;;;5086808;27;43923;-71
2022/05/25 10:56:57;;;;;;;1.70;1.60;;;21.90;66.10;;;;;;5087073;27;43947;-70
2022/05/25 10:59:27;;;;;;;1.40;1.40;;;21.70;66.40;;;;;;5087059;27;43944;-70
2022/05/25 11:02:12;;;;;;;1.70;1.60;;;21.50;66.80;;;;;;5106487;27;43967;-71
2022/05/25 11:05:10;;;;;;;1.40;1.40;;;21.40;67.20;;;;;;5104354;27;44008;-71
2022/05/25 11:07:38;;;;;;;1.50;1.50;;;21.30;67.60;;;;;;5086864;27;43955;-71
2022/05/25 11:10:19;;;;;;;1.67;1.63;;;21.20;67.90;;;;;;5094032;27;43397;-70
2022/05/25 11:12:54;;;;;;;1.40;1.40;;;21.10;68.00;;;;;;5086264;28;43826;-71
2022/05/25 11:15:25;;;;;;;1.60;1.60;;;21.10;68.30;;;;;;5086135;28;43398;-70
2022/05/25 11:18:04;;;;;;;1.40;1.40;;;21.10;68.50;;;;;;5086344;28;43966;-70
2022/05/25 11:20:37;;;;;;;1.57;1.57;;;21.00;69.20;;;;;;5086887;28;43745;-71
2022/05/25 11:23:24;;;;;;;1.30;1.30;;;21.00;70.20;;;;;;5086109;28;44968;-70
2022/05/25 11:25:58;;;;;;;1.50;1.50;;;21.10;70.20;;;;;;5069408;28;45288;-72
2022/05/25 11:28:49;;;;;;;1.50;1.50;;;21.30;70.30;;;;;;5089748;28;43481;-71
2022/05/25 11:31:23;;;;;;;1.40;1.40;;;21.50;69.10;;;;;;5090209;28;43947;-70
2022/05/25 11:34:03;;;;;;;1.27;1.27;;;21.70;68.30;;;;;;5090569;27;45954;-70
2022/05/25 11:37:01;;;;;;;1.40;1.40;;;21.90;67.70;;;;;;5071110;27;44923;-71
2022/05/25 11:39:33;;;;;;;1.60;1.60;;;22.10;67.20;;;;;;5090240;27;43932;-71
2022/05/25 11:42:07;;;;;;;1.40;1.40;;;22.20;66.70;;;;;;5090497;27;43353;-71
2022/05/25 11:44:49;;;;;;;1.40;1.40;;;22.20;66.00;;;;;;5095510;27;45054;-72
2022/05/25 11:47:24;;;;;;;1.30;1.30;;;22.30;65.70;;;;;;5090492;27;46467;-71
2022/05/25 11:50:02;;;;;;;1.40;1.40;;;22.30;65.90;;;;;;5109357;27;44160;-71
2022/05/25 11:52:41;;;;;;;1.23;1.23;;;22.10;66.20;;;;;;5110289;27;44009;-70
2022/05/25 11:55:15;;;;;;;1.13;1.13;;;22.00;66.20;;;;;;5109270;27;43979;-70
2022/05/25 11:57:46;;;;;;;1.03;1.03;;;21.70;66.30;;;;;;5109179;27;43995;-70
2022/05/25 12:00:31;;;;;;;1.73;1.63;;;21.50;66.80;;;;;;5109669;27;44057;-71
2022/05/25 12:03:28;;;;;;;1.60;1.57;;;21.40;67.30;;;;;;5076621;27;43968;-71
2022/05/25 12:06:04;;;;;;;1.40;1.40;;;21.30;67.60;;;;;;5038602;28;45900;-71
2022/05/25 12:08:52;;;;;;;1.53;1.43;;;21.20;67.90;;;;;;5089707;27;43473;-71
2022/05/25 12:11:25;;;;;;;1.20;1.20;;;21.10;68.10;;;;;;5089450;27;43402;-71
2022/05/25 12:13:55;;;;;;;1.37;1.37;;;21.10;68.30;;;;;;5089683;27;43774;-70
2022/05/25 12:16:24;;;;;;;1.80;1.70;;;21.00;68.30;;;;;;5099892;27;43995;-70
2022/05/25 12:18:56;;;;;;;1.20;1.20;;;21.00;68.40;;;;;;5090703;27;43999;-70
2022/05/25 12:21:26;;;;;;;1.40;1.40;;;21.00;68.60;;;;;;5089482;27;44032;-70
2022/05/25 12:23:59;;;;;;;1.27;1.27;;;21.00;68.70;;;;;;5094611;27;44103;-71
2022/05/25 12:26:27;;;;;;;1.50;1.40;;;20.90;69.30;;;;;;5096477;27;44785;-71
2022/05/25 12:29:00;;;;;;;1.23;1.23;;;21.00;70.10;;;;;;5089390;27;43504;-70
2022/05/25 12:31:30;;;;;;;1.30;1.30;;;21.10;70.20;;;;;;5096478;27;44018;-70
2022/05/25 12:33:58;;;;;;;1.50;1.47;;;21.20;69.60;;;;;;5089420;27;44107;-71
2022/05/25 12:36:26;;;;;;;1.50;1.50;;;21.40;69.30;;;;;;5088237;27;44002;-71
2022/05/25 12:38:56;;;;;;;1.40;1.40;;;21.60;68.70;;;;;;5087013;27;46166;-70
2022/05/25 12:41:27;;;;;;;1.30;1.30;;;21.70;68.10;;;;;;5088612;28;44009;-71
2022/05/25 12:43:56;;;;;;;1.57;1.50;;;21.90;67.70;;;;;;5074699;28;43559;-70
2022/05/25 12:49:52;;;;;;;1.20;1.20;;;22.20;66.50;;;;;;5088078;28;43965;-71
2022/05/25 12:52:39;;;;;;;1.33;1.33;;;22.30;65.80;;;;;;5088502;28;44009;-70
2022/05/25 12:55:16;;;;;;;1.20;1.20;;;22.40;65.20;;;;;;5107462;27;43886;-70
2022/05/25 12:57:47;;;;;;;1.27;1.27;;;22.40;65.40;;;;;;5089601;27;46168;-71
2022/05/25 13:00:16;;;;;;;1.30;1.30;;;22.30;65.70;;;;;;5088043;28;43910;-71
2022/05/25 13:02:44;;;;;;;1.20;1.20;;;22.10;66.20;;;;;;5095156;27;43975;-70
2022/05/25 13:05:28;;;;;;;1.20;1.20;;;21.90;65.80;;;;;;5088923;27;44021;-72
2022/05/25 13:07:56;;;;;;;1.30;1.30;;;21.70;66.10;;;;;;5103602;27;45115;-71
2022/05/25 13:11:04;;;;;;;1.20;1.10;;;21.50;66.60;;;;;;5094427;27;43896;-71
2022/05/25 13:13:41;;;;;;;1.30;1.30;;;21.40;67.10;;;;;;5108430;27;44054;-70
2022/05/25 13:16:09;;;;;;;1.07;1.07;;;21.20;67.50;;;;;;5108408;27;44016;-71
2022/05/25 13:18:53;;;;;;;1.10;1.10;;;21.20;67.70;;;;;;5091984;27;43935;-70
2022/05/25 13:21:36;;;;;;;1.10;1.10;;;21.10;67.90;;;;;;5099637;27;44100;-71
2022/05/25 13:24:29;;;;;;;1.00;1.00;;;21.00;68.00;;;;;;5087696;27;43394;-70
2022/05/25 13:27:19;;;;;;;1.17;1.17;;;21.00;68.20;;;;;;5088659;27;43396;-71
2022/05/25 13:29:54;;;;;;;1.10;1.10;;;21.00;68.30;;;;;;5068658;28;45735;-70
2022/05/25 13:32:33;;;;;;;1.00;1.00;;;21.00;68.40;;;;;;5088082;27;44100;-71
2022/05/25 13:35:04;;;;;;;1.23;1.23;;;20.90;68.50;;;;;;5088274;27;44010;-71
2022/05/25 13:37:32;;;;;;;1.20;1.20;;;20.90;69.50;;;;;;5072243;27;43960;-70
2022/05/25 13:40:00;;;;;;;1.33;1.33;;;21.00;70.00;;;;;;5107914;27;43998;-71